Time;durP1;ratioP1;P1;durP2;ratioP2;P2;SDS_P1;SDS_P2;PMS_P1;PMS_P2;Temp;Humidity;BMP_temperature;BMP_pressure;BME280_temperature;BME280_humidity;BME280_pressure;Samples;Min_cycle;Max_cycle;Signal;HPM_P1;HPM_P2
2021/05/04 00:00:21;;;;;;;4.03;2.40;;;14.20;47.50;;;;;;2088217;28;20435;-67
2021/05/04 00:01:22;;;;;;;2.97;2.60;;;14.20;47.70;;;;;;2088155;28;20468;-67
2021/05/04 00:02:22;;;;;;;2.78;2.58;;;14.20;47.80;;;;;;2088123;28;20522;-67
2021/05/04 00:03:23;;;;;;;4.40;2.72;;;14.20;47.40;;;;;;2088254;28;20422;-67
2021/05/04 00:04:23;;;;;;;3.50;2.20;;;14.20;47.40;;;;;;2088697;28;20036;-68
2021/05/04 00:05:24;;;;;;;3.03;2.55;;;14.20;47.50;;;;;;2088176;28;20021;-68
2021/05/04 00:06:25;;;;;;;9.60;2.60;;;14.20;47.40;;;;;;2088730;28;20021;-67
2021/05/04 00:07:25;;;;;;;4.22;2.17;;;14.20;47.40;;;;;;2087093;28;20087;-68
2021/05/04 00:08:26;;;;;;;5.45;2.53;;;14.20;47.50;;;;;;2088125;28;20021;-68
2021/05/04 00:09:27;;;;;;;2.70;2.47;;;14.20;47.40;;;;;;2085453;28;20240;-67
2021/05/04 00:10:27;;;;;;;2.30;2.17;;;14.20;47.60;;;;;;2080264;28;20025;-68
2021/05/04 00:11:28;;;;;;;3.60;2.60;;;14.20;47.80;;;;;;2080308;28;20068;-67
2021/05/04 00:12:28;;;;;;;4.22;2.60;;;14.20;47.60;;;;;;2087600;28;20584;-67
2021/05/04 00:13:29;;;;;;;6.55;2.38;;;14.20;47.50;;;;;;2087567;28;20083;-67
2021/05/04 00:14:31;;;;;;;3.55;2.58;;;14.20;47.40;;;;;;2079334;28;20497;-68
2021/05/04 00:15:31;;;;;;;2.35;2.15;;;14.20;47.40;;;;;;2087450;28;20029;-67
2021/05/04 00:16:32;;;;;;;2.53;2.33;;;14.20;47.50;;;;;;2088781;28;20021;-68
2021/05/04 00:17:33;;;;;;;3.97;2.30;;;14.20;47.70;;;;;;2088252;28;20057;-67
2021/05/04 00:18:33;;;;;;;2.42;2.22;;;14.20;47.50;;;;;;2088347;28;20048;-68
2021/05/04 00:19:34;;;;;;;2.85;2.38;;;14.20;47.40;;;;;;2084049;28;20087;-68
2021/05/04 00:20:34;;;;;;;4.57;2.28;;;14.20;47.50;;;;;;2088029;28;20115;-68
2021/05/04 00:21:35;;;;;;;2.75;2.30;;;14.10;47.50;;;;;;2088307;28;20575;-67
2021/05/04 00:22:35;;;;;;;3.67;2.17;;;14.10;47.50;;;;;;2088017;28;20082;-68
2021/05/04 00:23:36;;;;;;;6.60;2.15;;;14.10;47.50;;;;;;2088263;28;20029;-67
2021/05/04 00:24:37;;;;;;;4.07;2.35;;;14.10;47.50;;;;;;2081531;28;20087;-68
2021/05/04 00:25:38;;;;;;;7.10;2.75;;;14.10;47.60;;;;;;2080058;28;20033;-68
2021/05/04 00:26:38;;;;;;;4.47;2.58;;;14.10;47.50;;;;;;2079972;28;20037;-68
2021/05/04 00:27:39;;;;;;;5.00;2.83;;;14.10;47.60;;;;;;2078848;28;20120;-67
2021/05/04 00:28:40;;;;;;;3.22;2.10;;;14.10;47.50;;;;;;2087360;28;20373;-67
2021/05/04 00:29:40;;;;;;;2.42;2.22;;;14.10;48.10;;;;;;2087810;28;20440;-68
2021/05/04 00:30:41;;;;;;;2.45;2.20;;;14.10;47.60;;;;;;2088249;28;20028;-68
2021/05/04 00:31:41;;;;;;;2.78;2.55;;;14.10;47.40;;;;;;2082633;28;20397;-67
2021/05/04 00:32:42;;;;;;;7.20;2.15;;;14.10;47.50;;;;;;2080117;28;21108;-67
2021/05/04 00:33:42;;;;;;;2.22;2.03;;;14.10;47.70;;;;;;2088307;28;20029;-68
2021/05/04 00:34:43;;;;;;;3.05;2.28;;;14.10;47.40;;;;;;2088009;28;20017;-68
2021/05/04 00:35:44;;;;;;;3.00;2.38;;;14.10;47.50;;;;;;2088336;28;20389;-68
2021/05/04 00:36:44;;;;;;;2.22;1.80;;;14.10;47.50;;;;;;2088244;28;20469;-68
2021/05/04 00:37:45;;;;;;;3.88;2.28;;;14.10;47.60;;;;;;2087928;28;20021;-68
2021/05/04 00:38:45;;;;;;;3.25;1.90;;;14.10;47.60;;;;;;2088385;28;20029;-67
2021/05/04 00:39:46;;;;;;;2.22;1.98;;;14.10;47.60;;;;;;2082787;28;20029;-68
2021/05/04 00:40:46;;;;;;;2.92;2.35;;;14.10;47.40;;;;;;2079031;28;20046;-68
2021/05/04 00:41:47;;;;;;;6.28;2.40;;;14.10;47.40;;;;;;2079991;28;20053;-68
2021/05/04 00:42:48;;;;;;;4.70;2.13;;;14.10;47.40;;;;;;2082135;28;20025;-67
2021/05/04 00:43:49;;;;;;;2.88;1.80;;;14.10;47.40;;;;;;2088178;28;20029;-68
2021/05/04 00:44:49;;;;;;;1.90;1.80;;;14.10;47.70;;;;;;2088038;28;20043;-67
2021/05/04 00:45:50;;;;;;;4.22;2.00;;;14.10;47.60;;;;;;2088004;28;20029;-68
2021/05/04 00:46:50;;;;;;;3.80;2.17;;;14.10;47.60;;;;;;2088201;28;20203;-67
2021/05/04 00:47:51;;;;;;;2.75;2.47;;;14.10;48.30;;;;;;2083358;28;20022;-68
2021/05/04 00:48:52;;;;;;;3.35;2.00;;;14.10;47.60;;;;;;2080059;28;20041;-68
2021/05/04 00:49:52;;;;;;;2.97;2.00;;;14.10;47.40;;;;;;2087713;28;20036;-68
2021/05/04 00:50:53;;;;;;;2.95;1.88;;;14.10;47.60;;;;;;2088327;28;20031;-67
2021/05/04 00:51:55;;;;;;;3.15;2.20;;;14.10;47.50;;;;;;2088296;28;20479;-67
2021/05/04 00:52:56;;;;;;;4.28;2.00;;;14.10;47.50;;;;;;2087531;28;20098;-67
2021/05/04 00:53:56;;;;;;;2.45;2.10;;;14.10;47.70;;;;;;2087918;28;20029;-68
2021/05/04 00:54:58;;;;;;;3.80;2.15;;;14.10;47.60;;;;;;2088084;28;20017;-67
2021/05/04 00:56:00;;;;;;;3.75;2.13;;;14.10;47.60;;;;;;2088009;28;20649;-67
2021/05/04 00:57:01;;;;;;;2.20;1.98;;;14.10;47.80;;;;;;2087979;28;20115;-68
2021/05/04 00:58:02;;;;;;;2.08;1.83;;;14.10;47.80;;;;;;2079815;28;20037;-68
2021/05/04 00:59:05;;;;;;;3.03;2.10;;;14.10;47.60;;;;;;2079805;28;20021;-67
2021/05/04 01:00:07;;;;;;;2.63;2.05;;;14.10;47.50;;;;;;2080154;28;20032;-67
2021/05/04 01:01:08;;;;;;;2.90;2.25;;;14.10;47.80;;;;;;2079397;28;20025;-67
2021/05/04 01:02:09;;;;;;;7.65;2.00;;;14.10;47.60;;;;;;2074568;28;20029;-68
2021/05/04 01:03:10;;;;;;;4.40;1.92;;;14.10;47.50;;;;;;2080614;28;20483;-68
2021/05/04 01:04:12;;;;;;;2.13;1.52;;;14.10;47.50;;;;;;2080793;28;20425;-68
2021/05/04 01:05:13;;;;;;;2.63;2.00;;;14.10;47.60;;;;;;2079754;28;20105;-67
2021/05/04 01:06:13;;;;;;;1.80;1.70;;;14.10;47.60;;;;;;2080000;28;20067;-68
2021/05/04 01:07:14;;;;;;;1.60;1.50;;;14.10;47.80;;;;;;2082894;28;20086;-68
2021/05/04 01:08:14;;;;;;;3.13;2.20;;;14.10;47.80;;;;;;2087991;28;20079;-68
2021/05/04 01:09:18;;;;;;;5.53;2.00;;;14.10;47.70;;;;;;2088255;28;20021;-68
2021/05/04 01:10:19;;;;;;;2.83;1.90;;;14.10;47.70;;;;;;2088646;28;20035;-67
2021/05/04 01:11:19;;;;;;;2.55;1.90;;;14.10;47.70;;;;;;2079674;28;20029;-68
2021/05/04 01:12:21;;;;;;;3.40;1.92;;;14.10;47.70;;;;;;2079637;28;20029;-67
2021/05/04 01:13:21;;;;;;;4.55;1.60;;;14.20;47.70;;;;;;2079977;28;20056;-67
2021/05/04 01:14:23;;;;;;;2.35;1.73;;;14.20;47.80;;;;;;2079507;28;20026;-68
2021/05/04 01:15:24;;;;;;;3.63;1.73;;;14.20;47.90;;;;;;2083372;28;20073;-67
2021/05/04 01:16:24;;;;;;;2.30;1.90;;;14.10;47.80;;;;;;2087748;28;20025;-68
2021/05/04 01:17:25;;;;;;;4.68;2.40;;;14.20;47.70;;;;;;2088144;28;20032;-68
2021/05/04 01:18:26;;;;;;;3.40;1.85;;;14.10;47.80;;;;;;2088296;28;20078;-68
2021/05/04 01:19:26;;;;;;;3.15;1.75;;;14.10;47.70;;;;;;2083273;28;20079;-68
2021/05/04 01:20:28;;;;;;;2.83;2.05;;;14.20;47.70;;;;;;2084929;28;20546;-67
2021/05/04 01:21:28;;;;;;;1.63;1.52;;;14.10;47.80;;;;;;2087939;28;20027;-68
2021/05/04 01:22:29;;;;;;;2.83;1.80;;;14.10;47.80;;;;;;2087396;28;20033;-68
2021/05/04 01:23:29;;;;;;;3.97;2.28;;;14.10;47.80;;;;;;2087865;28;20048;-67
2021/05/04 01:24:30;;;;;;;1.95;1.77;;;14.10;48.00;;;;;;2087590;28;20041;-68
2021/05/04 01:25:31;;;;;;;2.15;1.80;;;14.20;48.10;;;;;;2087906;28;20404;-67
2021/05/04 01:26:32;;;;;;;2.10;1.40;;;14.20;47.90;;;;;;2087768;28;20040;-68
2021/05/04 01:27:33;;;;;;;2.28;1.73;;;14.10;48.40;;;;;;2082990;28;20037;-67
2021/05/04 01:28:33;;;;;;;4.03;2.00;;;14.20;47.80;;;;;;2084474;28;20035;-67
2021/05/04 01:29:34;;;;;;;3.42;1.73;;;14.20;47.80;;;;;;2083866;28;20624;-68
2021/05/04 01:30:35;;;;;;;1.73;1.60;;;14.20;47.90;;;;;;2079372;28;20025;-67
2021/05/04 01:31:36;;;;;;;1.70;1.60;;;14.20;48.00;;;;;;2075422;28;20065;-67
2021/05/04 01:32:37;;;;;;;2.30;1.80;;;14.20;47.80;;;;;;2077299;28;20125;-68
2021/05/04 01:33:37;;;;;;;4.53;1.67;;;14.20;47.90;;;;;;2079399;28;20025;-67
2021/05/04 01:34:38;;;;;;;1.77;1.58;;;14.20;47.80;;;;;;2082814;28;20076;-68
2021/05/04 01:35:38;;;;;;;6.85;1.92;;;14.20;47.70;;;;;;2087810;28;20033;-68
2021/05/04 01:36:39;;;;;;;4.32;1.52;;;14.20;47.70;;;;;;2087188;28;20029;-67
2021/05/04 01:37:40;;;;;;;2.03;1.80;;;14.20;47.70;;;;;;2087515;28;20060;-67
2021/05/04 01:38:41;;;;;;;2.90;1.60;;;14.20;47.70;;;;;;2087985;28;20029;-68
2021/05/04 01:39:46;;;;;;;2.00;1.90;;;14.20;47.70;;;;;;2087825;28;20102;-67
2021/05/04 01:40:47;;;;;;;2.10;1.60;;;14.20;47.80;;;;;;2082032;28;20056;-67
2021/05/04 01:41:47;;;;;;;2.38;1.70;;;14.20;47.80;;;;;;2088332;28;20791;-68
2021/05/04 01:42:48;;;;;;;1.67;1.48;;;14.20;47.90;;;;;;2086988;28;20029;-68
2021/05/04 01:43:48;;;;;;;3.67;1.48;;;14.20;47.80;;;;;;2088076;28;20033;-67
2021/05/04 01:44:49;;;;;;;5.40;1.80;;;14.20;47.80;;;;;;2079184;28;20084;-67
2021/05/04 01:45:50;;;;;;;1.90;1.60;;;14.20;47.70;;;;;;2078919;28;20035;-67
2021/05/04 01:46:50;;;;;;;4.30;1.48;;;14.20;47.70;;;;;;2079643;28;20485;-67
2021/05/04 01:47:51;;;;;;;3.15;1.65;;;14.20;47.70;;;;;;2085144;28;20025;-67
2021/05/04 01:48:52;;;;;;;1.67;1.58;;;14.20;47.80;;;;;;2087780;28;20885;-67
2021/05/04 01:49:53;;;;;;;5.18;1.73;;;14.20;47.80;;;;;;2087537;28;20517;-67
2021/05/04 01:50:53;;;;;;;1.38;1.27;;;14.20;47.60;;;;;;2087787;28;20397;-67
2021/05/04 01:51:55;;;;;;;4.20;1.38;;;14.20;47.70;;;;;;2087954;28;20532;-67
2021/05/04 01:52:56;;;;;;;3.90;1.70;;;14.20;47.80;;;;;;2083058;28;20025;-67
2021/05/04 01:53:57;;;;;;;1.95;1.42;;;14.20;47.70;;;;;;2081324;28;20495;-67
2021/05/04 01:54:59;;;;;;;1.48;1.38;;;14.20;47.80;;;;;;2082553;28;20288;-68
2021/05/04 01:56:00;;;;;;;7.22;1.95;;;14.20;47.60;;;;;;2089751;28;20025;-68
2021/05/04 01:57:00;;;;;;;2.97;1.88;;;14.20;47.70;;;;;;2089337;28;20071;-67
2021/05/04 01:58:01;;;;;;;2.72;1.50;;;14.20;47.80;;;;;;2089384;28;20109;-67
2021/05/04 01:59:03;;;;;;;1.38;1.27;;;14.20;47.90;;;;;;2089600;28;20059;-68
2021/05/04 02:00:07;;;;;;;3.05;1.50;;;14.20;47.70;;;;;;2082610;28;20021;-67
2021/05/04 02:01:07;;;;;;;4.18;1.50;;;14.20;47.70;;;;;;2089612;28;20013;-67
2021/05/04 02:02:08;;;;;;;1.50;1.40;;;14.30;47.90;;;;;;2090374;28;20033;-68
2021/05/04 02:03:08;;;;;;;10.70;1.40;;;14.30;47.90;;;;;;2084543;28;20033;-68
2021/05/04 02:04:09;;;;;;;2.70;1.40;;;14.30;47.50;;;;;;2082478;28;20036;-68
2021/05/04 02:05:10;;;;;;;8.32;1.33;;;14.30;47.20;;;;;;2082775;28;20018;-68
2021/05/04 02:06:11;;;;;;;3.28;1.42;;;14.30;47.20;;;;;;2086164;28;20491;-67
2021/05/04 02:07:12;;;;;;;2.95;1.65;;;14.20;46.90;;;;;;2086227;28;20441;-68
2021/05/04 02:08:12;;;;;;;1.27;1.15;;;14.30;47.00;;;;;;2090656;28;20059;-67
2021/05/04 02:09:14;;;;;;;4.75;1.60;;;14.30;47.30;;;;;;2090631;28;20056;-67
2021/05/04 02:10:14;;;;;;;3.78;1.58;;;14.30;47.30;;;;;;2090671;28;20025;-67
2021/05/04 02:11:15;;;;;;;6.47;1.50;;;14.30;47.50;;;;;;2090417;28;20028;-67
2021/05/04 02:12:16;;;;;;;3.10;1.50;;;14.30;47.50;;;;;;2090068;28;20112;-67
2021/05/04 02:13:17;;;;;;;1.40;1.02;;;14.30;47.60;;;;;;2090684;28;20021;-67
2021/05/04 02:14:17;;;;;;;2.08;1.50;;;14.30;47.60;;;;;;2090799;28;20493;-67
2021/05/04 02:15:18;;;;;;;1.75;1.23;;;14.30;47.70;;;;;;2086246;28;20092;-68
2021/05/04 02:16:18;;;;;;;3.72;1.30;;;14.30;47.90;;;;;;2082393;28;20080;-67
2021/05/04 02:17:19;;;;;;;1.77;1.50;;;14.40;47.90;;;;;;2089483;28;20025;-67
2021/05/04 02:18:20;;;;;;;2.20;1.20;;;14.30;48.10;;;;;;2090331;28;20317;-67
2021/05/04 02:19:20;;;;;;;2.95;1.40;;;14.30;48.20;;;;;;2090737;28;20029;-68
2021/05/04 02:20:21;;;;;;;5.38;1.70;;;14.30;48.20;;;;;;2089653;28;20021;-67
2021/05/04 02:21:22;;;;;;;4.15;1.88;;;14.30;48.40;;;;;;2090110;28;20120;-67
2021/05/04 02:22:22;;;;;;;12.02;2.00;;;14.30;48.60;;;;;;2090132;28;20114;-67
2021/05/04 02:23:23;;;;;;;5.45;1.60;;;14.30;48.90;;;;;;2090292;28;20025;-68
2021/05/04 02:24:23;;;;;;;4.35;1.33;;;14.20;49.10;;;;;;2090124;28;20021;-67
2021/05/04 02:25:24;;;;;;;5.65;1.48;;;14.20;49.60;;;;;;2090522;28;20029;-68
2021/05/04 02:26:24;;;;;;;6.05;1.67;;;14.20;50.70;;;;;;2090086;28;20583;-67
2021/05/04 02:27:25;;;;;;;3.00;1.50;;;14.20;51.00;;;;;;2090543;28;20035;-68
2021/05/04 02:28:26;;;;;;;9.50;1.50;;;14.20;51.20;;;;;;2090408;28;20029;-68
2021/05/04 02:29:26;;;;;;;8.13;1.48;;;14.10;51.40;;;;;;2090512;28;20025;-68
2021/05/04 02:30:27;;;;;;;6.22;1.50;;;14.10;51.80;;;;;;2082816;28;20033;-67
2021/05/04 02:31:28;;;;;;;7.45;2.05;;;14.10;51.90;;;;;;2082287;28;20060;-67
2021/05/04 02:32:32;;;;;;;5.20;1.23;;;14.00;52.20;;;;;;2081583;28;20033;-68
2021/05/04 02:33:32;;;;;;;3.47;1.40;;;14.00;53.20;;;;;;2089566;28;20104;-67
2021/05/04 02:34:33;;;;;;;7.75;1.77;;;13.90;53.30;;;;;;2090067;28;20025;-67
2021/05/04 02:35:33;;;;;;;6.10;1.50;;;13.90;53.40;;;;;;2090769;28;20064;-67
2021/05/04 02:36:34;;;;;;;3.30;1.30;;;13.90;53.60;;;;;;2090379;28;20037;-67
2021/05/04 02:37:35;;;;;;;4.38;1.25;;;13.80;54.00;;;;;;2090651;28;20599;-68
2021/05/04 02:38:36;;;;;;;4.53;1.38;;;13.80;54.70;;;;;;2090321;28;20111;-68
2021/05/04 02:39:36;;;;;;;6.18;1.23;;;13.80;54.80;;;;;;2090350;28;20387;-67
2021/05/04 02:40:37;;;;;;;3.15;1.40;;;13.80;55.20;;;;;;2083343;28;20033;-67
2021/05/04 02:41:37;;;;;;;4.38;1.50;;;13.70;55.20;;;;;;2089006;28;20037;-68
2021/05/04 02:42:38;;;;;;;6.30;1.52;;;13.70;55.30;;;;;;2089775;28;20028;-67
2021/05/04 02:43:39;;;;;;;2.53;1.35;;;13.70;55.70;;;;;;2090640;28;20056;-68
2021/05/04 02:44:39;;;;;;;5.55;1.42;;;13.70;56.20;;;;;;2087046;28;20192;-67
2021/05/04 02:45:40;;;;;;;2.72;1.30;;;13.60;56.60;;;;;;2081965;28;20099;-68
2021/05/04 02:46:40;;;;;;;2.45;1.30;;;13.60;57.30;;;;;;2076915;28;20515;-67
2021/05/04 02:47:41;;;;;;;3.33;1.40;;;13.60;57.70;;;;;;2081795;28;20032;-68
2021/05/04 02:48:43;;;;;;;7.47;1.60;;;13.50;58.80;;;;;;2082049;28;20028;-68
2021/05/04 02:49:43;;;;;;;7.78;1.60;;;13.40;59.40;;;;;;2088976;28;20029;-68
2021/05/04 02:50:45;;;;;;;3.42;1.58;;;13.40;60.20;;;;;;2090165;28;20021;-68
2021/05/04 02:51:45;;;;;;;4.28;1.15;;;13.40;61.30;;;;;;2090675;28;20482;-67
2021/05/04 02:52:46;;;;;;;9.70;1.45;;;13.40;62.90;;;;;;2089432;28;20033;-68
2021/05/04 02:53:46;;;;;;;1.67;1.42;;;13.30;64.50;;;;;;2090589;28;20021;-68
2021/05/04 02:54:47;;;;;;;5.07;1.20;;;13.30;65.60;;;;;;2090243;28;20041;-67
2021/05/04 02:55:48;;;;;;;6.78;1.83;;;13.20;66.00;;;;;;2090092;28;20048;-68
2021/05/04 02:56:48;;;;;;;5.93;1.48;;;13.10;67.90;;;;;;2090308;28;20468;-68
2021/05/04 02:57:49;;;;;;;5.03;1.40;;;13.10;68.50;;;;;;2090076;28;20025;-68
2021/05/04 02:58:49;;;;;;;5.57;1.35;;;13.00;70.20;;;;;;2090508;28;20029;-68
2021/05/04 02:59:50;;;;;;;4.95;1.33;;;13.00;71.40;;;;;;2088116;28;20060;-68
2021/05/04 03:00:51;;;;;;;3.70;1.60;;;12.90;72.90;;;;;;2087074;28;20025;-68
2021/05/04 03:01:51;;;;;;;2.75;1.20;;;12.90;74.30;;;;;;2089192;28;20095;-68
2021/05/04 03:02:52;;;;;;;7.55;1.63;;;12.80;75.30;;;;;;2088291;28;20029;-68
2021/05/04 03:03:52;;;;;;;7.95;1.70;;;12.80;76.90;;;;;;2088988;28;20045;-68
2021/05/04 03:04:53;;;;;;;5.40;1.73;;;12.70;78.80;;;;;;2089259;28;20025;-68
2021/05/04 03:05:54;;;;;;;5.45;1.38;;;12.70;79.30;;;;;;2088965;28;20028;-68
2021/05/04 03:06:54;;;;;;;7.90;1.38;;;12.60;81.00;;;;;;2087347;28;20083;-68
2021/05/04 03:07:55;;;;;;;3.33;1.33;;;12.60;82.10;;;;;;2089209;28;20025;-68
2021/05/04 03:08:55;;;;;;;5.35;1.77;;;12.60;84.10;;;;;;2088592;28;20072;-67
2021/05/04 03:09:56;;;;;;;2.42;1.30;;;12.60;84.80;;;;;;2088646;28;20031;-67
2021/05/04 03:10:57;;;;;;;6.93;1.65;;;12.50;86.10;;;;;;2089635;28;20052;-68
2021/05/04 03:11:58;;;;;;;4.10;1.80;;;12.50;87.40;;;;;;2089136;28;20025;-68
2021/05/04 03:12:58;;;;;;;7.32;2.25;;;12.50;88.10;;;;;;2088769;28;20017;-67
2021/05/04 03:13:59;;;;;;;4.18;1.30;;;12.50;89.80;;;;;;2088803;28;20017;-67
2021/05/04 03:15:00;;;;;;;3.47;1.30;;;12.40;90.30;;;;;;2084164;28;20021;-67
2021/05/04 03:16:01;;;;;;;6.25;1.15;;;12.40;90.10;;;;;;2089109;28;20048;-67
2021/05/04 03:17:01;;;;;;;3.42;1.30;;;12.40;90.80;;;;;;2089039;28;20049;-67
2021/05/04 03:18:02;;;;;;;3.15;1.50;;;12.30;91.00;;;;;;2088857;28;20656;-67
2021/05/04 03:19:03;;;;;;;7.47;1.50;;;12.30;91.20;;;;;;2088769;28;20074;-67
2021/05/04 03:20:05;;;;;;;6.28;1.40;;;12.30;91.40;;;;;;2088411;28;20033;-67
2021/05/04 03:21:06;;;;;;;3.03;1.00;;;12.30;91.90;;;;;;2089064;28;20029;-67
2021/05/04 03:22:06;;;;;;;5.85;1.25;;;12.20;91.90;;;;;;2088356;28;20087;-67
2021/05/04 03:23:07;;;;;;;4.80;1.70;;;12.20;92.40;;;;;;2086118;28;20522;-67
2021/05/04 03:24:07;;;;;;;1.92;0.85;;;12.10;92.80;;;;;;2080353;28;20441;-67
2021/05/04 03:25:08;;;;;;;7.13;1.30;;;12.10;93.50;;;;;;2085439;28;20029;-67
2021/05/04 03:26:09;;;;;;;5.60;1.25;;;12.10;93.70;;;;;;2088436;28;20025;-67
2021/05/04 03:27:09;;;;;;;4.97;1.35;;;12.00;94.40;;;;;;2088447;28;20032;-67
2021/05/04 03:28:10;;;;;;;3.95;1.40;;;12.00;94.40;;;;;;2088878;28;20100;-67
2021/05/04 03:29:10;;;;;;;8.10;1.70;;;12.00;94.80;;;;;;2088956;28;20415;-67
2021/05/04 03:30:12;;;;;;;5.20;1.15;;;11.90;95.30;;;;;;2084764;28;20100;-67
2021/05/04 03:31:12;;;;;;;8.48;1.67;;;11.90;95.80;;;;;;2080530;28;20029;-67
2021/05/04 03:32:13;;;;;;;7.20;1.90;;;11.90;96.20;;;;;;2077586;28;20026;-67
2021/05/04 03:33:14;;;;;;;4.28;1.50;;;11.90;96.40;;;;;;2081668;28;20024;-67
2021/05/04 03:34:14;;;;;;;8.98;1.42;;;11.80;96.40;;;;;;2079945;28;20129;-67
2021/05/04 03:35:15;;;;;;;6.32;1.52;;;11.80;96.70;;;;;;2080241;28;20025;-67
2021/05/04 03:36:16;;;;;;;3.97;1.23;;;11.80;97.00;;;;;;2084101;28;20036;-68
2021/05/04 03:37:16;;;;;;;11.10;1.63;;;11.80;97.10;;;;;;2088556;28;20016;-67
2021/05/04 03:38:17;;;;;;;2.90;1.27;;;11.80;97.60;;;;;;2088914;28;20045;-67
2021/05/04 03:39:17;;;;;;;7.95;1.33;;;11.80;97.80;;;;;;2088560;28;20060;-67
2021/05/04 03:40:18;;;;;;;4.43;1.52;;;11.80;97.90;;;;;;2083424;28;20041;-67
2021/05/04 03:41:19;;;;;;;4.18;1.40;;;11.70;97.80;;;;;;2080936;28;20029;-67
2021/05/04 03:42:19;;;;;;;4.18;1.65;;;11.70;98.60;;;;;;2079889;28;20031;-67
2021/05/04 03:43:20;;;;;;;4.10;1.73;;;11.70;98.90;;;;;;2080550;28;20134;-68
2021/05/04 03:44:20;;;;;;;7.40;1.73;;;11.70;99.10;;;;;;2083780;28;20020;-67
2021/05/04 03:45:21;;;;;;;10.35;1.67;;;11.70;99.40;;;;;;2081581;28;20041;-67
2021/05/04 03:46:21;;;;;;;4.13;1.38;;;11.60;99.90;;;;;;2080036;28;20029;-67
2021/05/04 03:47:22;;;;;;;4.35;1.30;;;11.60;99.80;;;;;;2080157;28;20036;-67
2021/05/04 03:48:22;;;;;;;2.55;1.23;;;11.60;99.90;;;;;;2079937;28;20084;-67
2021/05/04 03:49:23;;;;;;;2.42;1.60;;;11.60;99.90;;;;;;2084828;28;20035;-67
2021/05/04 03:50:27;;;;;;;5.30;1.40;;;11.50;99.90;;;;;;2088517;28;20049;-67
2021/05/04 03:51:27;;;;;;;6.78;1.77;;;11.50;99.90;;;;;;2088719;28;20025;-67
2021/05/04 03:52:28;;;;;;;4.03;1.38;;;11.60;99.90;;;;;;2087948;28;20049;-68
2021/05/04 03:53:30;;;;;;;5.38;1.35;;;11.50;99.90;;;;;;2088645;28;20086;-67
2021/05/04 03:54:31;;;;;;;9.48;1.95;;;11.50;99.90;;;;;;2088673;28;20049;-67
2021/05/04 03:55:32;;;;;;;2.72;1.52;;;11.50;99.90;;;;;;2088511;28;20021;-68
2021/05/04 03:56:32;;;;;;;3.88;1.75;;;11.50;99.90;;;;;;2088564;28;20082;-67
2021/05/04 03:57:33;;;;;;;2.92;1.90;;;11.50;99.90;;;;;;2087658;28;20389;-67
2021/05/04 03:58:34;;;;;;;4.50;1.55;;;11.50;99.90;;;;;;2088070;28;20488;-67
2021/05/04 03:59:34;;;;;;;4.35;1.48;;;11.50;99.90;;;;;;2088483;28;20146;-67
2021/05/04 04:00:35;;;;;;;4.40;2.05;;;11.40;99.90;;;;;;2082482;28;20071;-67
2021/05/04 04:01:36;;;;;;;8.85;1.88;;;11.40;99.90;;;;;;2080226;28;20551;-67
2021/05/04 04:02:37;;;;;;;4.65;1.65;;;11.40;99.90;;;;;;2086473;28;20029;-67
2021/05/04 04:03:37;;;;;;;3.28;1.67;;;11.40;99.90;;;;;;2088346;28;20104;-68
2021/05/04 04:04:38;;;;;;;4.22;2.00;;;11.40;99.90;;;;;;2088334;28;20036;-67
2021/05/04 04:05:38;;;;;;;2.95;1.40;;;11.30;99.90;;;;;;2088621;28;20068;-67
2021/05/04 04:06:39;;;;;;;6.97;1.65;;;11.30;99.90;;;;;;2087161;28;20033;-68
2021/05/04 04:07:40;;;;;;;6.78;1.50;;;11.30;99.90;;;;;;2079460;28;20037;-68
2021/05/04 04:08:40;;;;;;;9.23;2.17;;;11.30;99.90;;;;;;2082229;28;20395;-67
2021/05/04 04:09:41;;;;;;;4.45;2.00;;;11.30;99.90;;;;;;2088651;28;20403;-67
2021/05/04 04:10:42;;;;;;;9.05;1.63;;;11.20;99.90;;;;;;2088048;28;20025;-67
2021/05/04 04:11:42;;;;;;;6.57;1.67;;;11.20;99.90;;;;;;2088032;28;20111;-67
2021/05/04 04:12:43;;;;;;;2.92;1.50;;;11.20;99.90;;;;;;2086830;28;20520;-67
2021/05/04 04:13:44;;;;;;;1.80;1.58;;;11.20;99.90;;;;;;2088794;28;20024;-67
2021/05/04 04:14:45;;;;;;;8.07;2.13;;;11.20;99.90;;;;;;2086353;28;20103;-67
2021/05/04 04:15:46;;;;;;;3.22;1.77;;;11.20;99.90;;;;;;2079653;28;20030;-67
2021/05/04 04:16:46;;;;;;;5.00;1.90;;;11.20;99.90;;;;;;2080258;28;20045;-68
2021/05/04 04:17:47;;;;;;;2.70;1.48;;;11.10;99.90;;;;;;2080444;28;20028;-67
2021/05/04 04:18:47;;;;;;;7.85;1.95;;;11.10;99.90;;;;;;2086194;28;20029;-67
2021/05/04 04:19:48;;;;;;;5.45;1.67;;;11.10;99.90;;;;;;2086865;28;20037;-67
2021/05/04 04:20:49;;;;;;;6.05;1.85;;;11.10;99.90;;;;;;2080033;28;20095;-67
2021/05/04 04:21:50;;;;;;;3.97;1.55;;;11.10;99.90;;;;;;2080413;28;20026;-67
2021/05/04 04:22:50;;;;;;;3.28;1.60;;;11.10;99.90;;;;;;2076564;28;20492;-67
2021/05/04 04:23:51;;;;;;;1.90;1.42;;;11.10;99.90;;;;;;2081019;28;20025;-67
2021/05/04 04:24:55;;;;;;;1.73;1.60;;;11.10;99.90;;;;;;2082351;28;20084;-67
2021/05/04 04:25:55;;;;;;;6.13;1.45;;;11.10;99.90;;;;;;2080232;28;20041;-67
2021/05/04 04:26:56;;;;;;;2.60;1.60;;;11.10;99.90;;;;;;2084282;28;20104;-67
2021/05/04 04:27:57;;;;;;;4.22;1.67;;;11.10;99.90;;;;;;2080620;28;20080;-67
2021/05/04 04:28:58;;;;;;;1.70;1.60;;;11.10;99.90;;;;;;2079819;28;20021;-67
2021/05/04 04:29:58;;;;;;;5.75;2.00;;;11.10;99.90;;;;;;2079220;28;20032;-67
2021/05/04 04:30:59;;;;;;;3.08;1.38;;;11.00;99.90;;;;;;2079229;28;20029;-67
2021/05/04 04:32:04;;;;;;;1.75;1.38;;;11.00;99.90;;;;;;2080128;28;20084;-67
2021/05/04 04:33:05;;;;;;;2.78;1.58;;;11.00;99.90;;;;;;2083097;28;20025;-67
2021/05/04 04:34:05;;;;;;;2.28;1.70;;;11.00;99.90;;;;;;2081903;28;20101;-67
2021/05/04 04:35:06;;;;;;;4.30;1.85;;;11.00;99.90;;;;;;2079684;28;20025;-67
2021/05/04 04:36:07;;;;;;;1.52;1.42;;;10.90;99.90;;;;;;2077267;28;20030;-67
2021/05/04 04:37:07;;;;;;;3.08;1.60;;;11.00;99.90;;;;;;2088160;28;20128;-67
2021/05/04 04:38:08;;;;;;;1.83;1.42;;;10.90;99.90;;;;;;2088374;28;20498;-67
2021/05/04 04:39:08;;;;;;;2.22;1.73;;;10.90;99.90;;;;;;2088029;28;20100;-67
2021/05/04 04:40:10;;;;;;;5.63;1.85;;;10.90;99.90;;;;;;2085341;28;20029;-67
2021/05/04 04:41:11;;;;;;;1.90;1.50;;;10.90;99.90;;;;;;2073331;28;20063;-67
2021/05/04 04:42:11;;;;;;;1.88;1.77;;;10.90;99.90;;;;;;2072564;28;20025;-67
2021/05/04 04:43:12;;;;;;;1.77;1.67;;;10.80;99.90;;;;;;2075528;28;21688;-67
2021/05/04 04:44:13;;;;;;;2.25;1.42;;;10.90;99.90;;;;;;2076381;28;20126;-67
2021/05/04 04:45:14;;;;;;;2.78;1.38;;;10.80;99.90;;;;;;2072692;28;20022;-67
2021/05/04 04:46:14;;;;;;;1.70;1.60;;;10.80;99.90;;;;;;2074672;28;20026;-67
2021/05/04 04:47:15;;;;;;;3.40;1.95;;;10.90;99.90;;;;;;2072722;28;20072;-67
2021/05/04 04:48:15;;;;;;;3.63;1.30;;;10.90;99.90;;;;;;2075246;28;20033;-67
2021/05/04 04:49:18;;;;;;;2.83;1.58;;;10.80;99.90;;;;;;2078190;28;20021;-68
2021/05/04 04:50:18;;;;;;;4.15;1.80;;;10.80;99.90;;;;;;2074675;28;20032;-67
2021/05/04 04:51:19;;;;;;;1.70;1.55;;;10.80;99.90;;;;;;2075419;28;20018;-67
2021/05/04 04:52:19;;;;;;;2.60;1.88;;;10.80;99.90;;;;;;2074347;28;20018;-67
2021/05/04 04:53:20;;;;;;;4.15;1.83;;;10.80;99.90;;;;;;2074775;28;20045;-67
2021/05/04 04:54:21;;;;;;;2.70;1.75;;;10.80;99.90;;;;;;2073650;28;20427;-67
2021/05/04 04:55:21;;;;;;;1.83;1.40;;;10.80;99.90;;;;;;2072983;28;20025;-67
2021/05/04 04:56:22;;;;;;;3.90;1.58;;;10.80;99.90;;;;;;2075668;28;20160;-67
2021/05/04 04:57:22;;;;;;;1.67;1.58;;;10.80;99.90;;;;;;2081104;28;20025;-67
2021/05/04 04:58:23;;;;;;;2.83;1.55;;;10.80;99.90;;;;;;2073954;28;20052;-67
2021/05/04 04:59:23;;;;;;;2.67;1.45;;;10.80;99.90;;;;;;2074972;28;20022;-67
2021/05/04 05:00:24;;;;;;;2.65;1.60;;;10.80;99.90;;;;;;2074730;28;20026;-67
2021/05/04 05:01:25;;;;;;;3.28;1.95;;;10.80;99.90;;;;;;2075110;28;20030;-67
2021/05/04 05:02:25;;;;;;;3.42;1.30;;;10.80;99.90;;;;;;2071535;28;20624;-68
2021/05/04 05:03:26;;;;;;;2.63;1.92;;;10.70;99.90;;;;;;2079402;28;20397;-67
2021/05/04 05:04:26;;;;;;;2.03;1.73;;;10.80;99.90;;;;;;2079878;28;20052;-67
2021/05/04 05:05:27;;;;;;;2.55;1.70;;;10.80;99.90;;;;;;2074150;28;20041;-67
2021/05/04 05:06:28;;;;;;;2.50;1.95;;;10.70;99.90;;;;;;2077485;28;20103;-67
2021/05/04 05:07:28;;;;;;;3.67;1.50;;;10.80;99.90;;;;;;2080861;28;20115;-67
2021/05/04 05:08:29;;;;;;;3.45;1.60;;;10.80;99.90;;;;;;2080959;28;20583;-67
2021/05/04 05:09:29;;;;;;;3.35;1.90;;;10.80;99.90;;;;;;2080590;28;20029;-67
2021/05/04 05:10:30;;;;;;;3.95;1.80;;;10.70;99.90;;;;;;2079766;28;20018;-67
2021/05/04 05:11:30;;;;;;;3.35;1.90;;;10.80;99.90;;;;;;2080333;28;20431;-67
2021/05/04 05:12:31;;;;;;;2.80;1.75;;;10.80;99.90;;;;;;2079707;28;20623;-67
2021/05/04 05:13:32;;;;;;;1.85;1.45;;;10.80;99.90;;;;;;2080690;28;20059;-67
2021/05/04 05:14:34;;;;;;;2.40;1.50;;;10.80;99.90;;;;;;2082448;28;20030;-67
2021/05/04 05:15:39;;;;;;;4.78;1.52;;;10.80;99.90;;;;;;2079775;28;20024;-67